createdAt,value
2018-07-20T00:00:02.606Z,9.43
2018-07-20T00:02:31.387Z,9.20
2018-07-20T00:05:00.068Z,12.23
2018-07-20T00:07:28.848Z,10.53
2018-07-20T00:09:57.611Z,9.37
2018-07-20T00:12:26.390Z,9.27
2018-07-20T00:14:55.092Z,9.87
2018-07-20T00:17:23.866Z,9.50
2018-07-20T00:19:52.688Z,10.57
2018-07-20T00:22:21.365Z,9.63
2018-07-20T00:24:50.060Z,10.07
2018-07-20T00:27:18.748Z,9.73
2018-07-20T00:29:47.436Z,10.90
2018-07-20T00:32:16.120Z,10.30
2018-07-20T00:34:44.799Z,10.37
2018-07-20T00:37:13.823Z,10.23
2018-07-20T00:39:42.578Z,9.40
2018-07-20T00:42:11.410Z,9.00
2018-07-20T00:44:40.060Z,9.23
2018-07-20T00:47:14.089Z,9.03
2018-07-20T00:49:42.681Z,11.57
2018-07-20T00:52:13.178Z,13.90
2018-07-20T00:54:41.893Z,8.63
2018-07-20T00:57:10.609Z,10.57
2018-07-20T00:59:39.778Z,9.03
2018-07-20T01:02:08.689Z,8.20
2018-07-20T01:04:37.384Z,10.47
2018-07-20T01:07:06.130Z,10.53
2018-07-20T01:09:34.792Z,9.20
2018-07-20T01:12:03.522Z,7.43
2018-07-20T01:14:32.127Z,9.30
2018-07-20T01:17:00.786Z,15.63
2018-07-20T01:19:30.067Z,8.77
2018-07-20T01:21:58.731Z,11.27
2018-07-20T01:24:27.524Z,9.50
2018-07-20T01:26:56.231Z,9.00
2018-07-20T01:29:24.897Z,9.20
2018-07-20T01:31:53.601Z,8.30
2018-07-20T01:34:22.229Z,8.13
2018-07-20T01:36:50.980Z,7.60
2018-07-20T01:39:19.662Z,11.50
2018-07-20T01:41:48.297Z,8.03
2018-07-20T01:44:16.928Z,7.77
2018-07-20T01:46:45.584Z,7.60
2018-07-20T01:49:14.203Z,8.07
2018-07-20T01:51:42.806Z,7.13
2018-07-20T01:54:11.457Z,8.30
2018-07-20T01:56:40.183Z,10.43
2018-07-20T01:59:08.897Z,8.20
2018-07-20T02:01:37.554Z,8.07
2018-07-20T02:04:06.576Z,8.93
2018-07-20T02:06:35.190Z,8.93
2018-07-20T02:09:04.896Z,8.67
2018-07-20T02:11:34.323Z,9.30
2018-07-20T02:14:03.028Z,9.83
2018-07-20T02:16:31.751Z,8.03
2018-07-20T02:19:00.361Z,9.27
2018-07-20T02:21:29.210Z,9.27
2018-07-20T02:23:57.809Z,9.57
2018-07-20T02:26:26.454Z,7.80
2018-07-20T02:28:55.073Z,8.77
2018-07-20T02:31:23.689Z,8.57
2018-07-20T02:33:52.388Z,7.30
2018-07-20T02:36:21.045Z,11.80
2018-07-20T02:38:49.795Z,9.63
2018-07-20T02:41:18.403Z,8.90
2018-07-20T02:43:46.984Z,7.93
2018-07-20T02:46:15.678Z,9.80
2018-07-20T02:48:44.377Z,9.20
2018-07-20T02:51:13.044Z,9.20
2018-07-20T02:53:41.770Z,9.50
2018-07-20T02:56:10.368Z,13.70
2018-07-20T02:58:39.017Z,8.90
2018-07-20T03:01:07.721Z,10.07
2018-07-20T03:03:36.574Z,9.60
2018-07-20T03:06:05.747Z,9.27
2018-07-20T03:08:34.422Z,10.33
2018-07-20T03:11:03.151Z,8.97
2018-07-20T03:13:31.794Z,9.57
2018-07-20T03:16:00.422Z,9.40
2018-07-20T03:18:29.105Z,9.67
2018-07-20T03:20:57.861Z,9.90
2018-07-20T03:23:26.454Z,8.97
2018-07-20T03:25:55.079Z,9.90
2018-07-20T03:28:23.847Z,10.20
2018-07-20T03:30:52.612Z,9.90
2018-07-20T03:33:21.698Z,9.80
2018-07-20T03:35:50.333Z,8.80
2018-07-20T03:38:18.980Z,10.17
2018-07-20T03:40:47.646Z,10.37
2018-07-20T03:43:16.251Z,9.67
2018-07-20T03:45:44.870Z,9.50
2018-07-20T03:48:13.544Z,9.20
2018-07-20T03:50:42.154Z,8.77
2018-07-20T03:53:11.556Z,9.50
2018-07-20T03:55:40.203Z,8.70
2018-07-20T03:58:08.886Z,9.53
2018-07-20T04:00:37.575Z,10.20
2018-07-20T04:03:07.744Z,13.80
2018-07-20T04:05:36.918Z,9.70
2018-07-20T04:08:05.626Z,9.57
2018-07-20T04:10:34.231Z,9.30
2018-07-20T04:13:02.847Z,10.40
2018-07-20T04:15:31.492Z,8.90
2018-07-20T04:18:00.289Z,10.00
2018-07-20T04:20:29.038Z,9.03
2018-07-20T04:22:57.708Z,9.80
2018-07-20T04:25:26.377Z,9.00
2018-07-20T04:27:55.159Z,12.40
2018-07-20T04:30:23.822Z,11.63
2018-07-20T04:32:56.783Z,9.50
2018-07-20T04:35:25.697Z,9.10
2018-07-20T04:37:54.316Z,10.10
2018-07-20T04:40:23.004Z,10.23
2018-07-20T04:42:51.719Z,11.20
2018-07-20T04:45:20.377Z,9.80
2018-07-20T04:47:49.578Z,10.23
2018-07-20T04:50:18.236Z,10.87
2018-07-20T04:52:47.010Z,9.40
2018-07-20T04:55:15.621Z,10.20
2018-07-20T04:57:44.370Z,10.40
2018-07-20T05:00:13.132Z,10.63
2018-07-20T05:02:41.920Z,9.97
2018-07-20T05:05:10.573Z,12.07
2018-07-20T05:07:39.309Z,9.70
2018-07-20T05:10:08.299Z,11.93
2018-07-20T05:12:37.014Z,10.50
2018-07-20T05:15:05.747Z,9.77
2018-07-20T05:17:34.459Z,11.00
2018-07-20T05:20:03.141Z,10.77
2018-07-20T05:22:31.854Z,10.33
2018-07-20T05:25:00.727Z,10.00
2018-07-20T05:27:30.044Z,13.63
2018-07-20T05:30:06.786Z,10.70
2018-07-20T05:32:35.577Z,11.73
2018-07-20T05:35:04.336Z,10.90
2018-07-20T05:37:33.033Z,10.90
2018-07-20T05:40:01.764Z,11.33
2018-07-20T05:42:30.501Z,10.97
2018-07-20T05:44:59.237Z,13.30
2018-07-20T05:47:27.999Z,11.90
2018-07-20T05:49:56.697Z,13.03
2018-07-20T05:52:25.426Z,12.40
2018-07-20T05:54:54.134Z,12.07
2018-07-20T05:57:22.830Z,11.43
2018-07-20T05:59:51.572Z,13.47
2018-07-20T06:02:20.301Z,10.97
2018-07-20T06:04:49.000Z,11.33
2018-07-20T06:07:17.788Z,11.70
2018-07-20T06:09:46.639Z,12.20
2018-07-20T06:12:15.367Z,12.00
2018-07-20T06:14:44.121Z,11.13
2018-07-20T06:17:12.901Z,11.57
2018-07-20T06:19:41.614Z,14.20
2018-07-20T06:22:10.338Z,10.90
2018-07-20T06:24:39.137Z,10.30
2018-07-20T06:27:07.838Z,11.43
2018-07-20T06:29:36.456Z,12.53
2018-07-20T06:32:05.240Z,11.77
2018-07-20T06:34:33.886Z,11.50
2018-07-20T06:37:02.594Z,11.40
2018-07-20T06:39:31.214Z,10.47
2018-07-20T06:41:59.966Z,12.83
2018-07-20T06:44:28.882Z,11.27
2018-07-20T06:46:57.593Z,10.83
2018-07-20T06:49:26.419Z,11.03
2018-07-20T06:51:55.215Z,11.80
2018-07-20T06:54:23.952Z,10.37
2018-07-20T06:56:52.676Z,11.90
2018-07-20T06:59:21.430Z,10.83
2018-07-20T07:01:56.759Z,11.40
2018-07-20T07:04:25.482Z,13.60
2018-07-20T07:06:54.570Z,13.30
2018-07-20T07:09:23.382Z,13.53
2018-07-20T07:11:52.143Z,12.90
2018-07-20T07:14:21.201Z,11.83
2018-07-20T07:16:49.981Z,12.47
2018-07-20T07:19:18.771Z,12.30
2018-07-20T07:21:47.478Z,15.10
2018-07-20T07:24:16.235Z,11.93
2018-07-20T07:26:45.032Z,11.07
2018-07-20T07:29:13.818Z,11.07
2018-07-20T07:31:43.285Z,12.63
2018-07-20T07:34:12.015Z,11.07
2018-07-20T07:36:40.939Z,12.97
2018-07-20T07:39:11.542Z,12.30
2018-07-20T07:41:40.286Z,10.00
2018-07-20T07:44:09.198Z,10.90
2018-07-20T07:46:38.043Z,11.87
2018-07-20T07:49:06.973Z,10.60
2018-07-20T07:51:36.364Z,11.83
2018-07-20T07:54:05.481Z,14.90
2018-07-20T07:56:34.342Z,12.07
2018-07-20T07:59:03.055Z,14.77
2018-07-20T08:01:31.845Z,13.13
2018-07-20T08:04:00.594Z,17.10
2018-07-20T08:06:29.344Z,14.00
2018-07-20T08:08:58.997Z,14.93
2018-07-20T08:11:27.714Z,13.27
2018-07-20T08:13:56.500Z,13.47
2018-07-20T08:16:25.261Z,14.87
2018-07-20T08:18:54.056Z,14.23
2018-07-20T08:21:22.805Z,13.57
2018-07-20T08:23:51.582Z,14.17
2018-07-20T08:26:20.405Z,14.93
2018-07-20T08:28:49.250Z,13.60
2018-07-20T08:31:18.028Z,12.20
2018-07-20T08:33:46.830Z,17.20
2018-07-20T08:36:15.565Z,14.33
2018-07-20T08:38:44.324Z,17.20
2018-07-20T08:41:13.134Z,13.40
2018-07-20T08:43:41.860Z,15.30
2018-07-20T08:46:10.550Z,13.17
2018-07-20T08:48:39.363Z,13.87
2018-07-20T08:51:08.153Z,14.27
2018-07-20T08:53:36.935Z,12.70
2018-07-20T08:56:05.982Z,13.37
2018-07-20T08:58:34.738Z,13.20
2018-07-20T09:01:04.362Z,12.67
2018-07-20T09:03:33.174Z,16.97
2018-07-20T09:06:01.929Z,13.73
2018-07-20T09:08:30.712Z,12.60
2018-07-20T09:10:59.557Z,13.23
2018-07-20T09:13:28.358Z,12.70
2018-07-20T09:15:57.130Z,13.43
2018-07-20T09:18:25.916Z,11.47
2018-07-20T09:20:54.655Z,14.10
2018-07-20T09:23:23.428Z,14.30
2018-07-20T09:25:52.134Z,13.63
2018-07-20T09:28:20.851Z,12.50
2018-07-20T09:30:49.549Z,12.60
2018-07-20T09:33:18.226Z,15.13
2018-07-20T09:35:46.926Z,12.23
2018-07-20T09:38:15.779Z,12.70
2018-07-20T09:40:44.447Z,13.40
2018-07-20T09:43:13.143Z,12.63
2018-07-20T09:45:41.947Z,13.10
2018-07-20T09:48:10.633Z,13.13
2018-07-20T09:50:39.390Z,16.53
2018-07-20T09:53:08.165Z,12.63
2018-07-20T09:55:36.886Z,11.57
2018-07-20T09:58:05.815Z,14.20
2018-07-20T10:00:39.814Z,13.20
2018-07-20T10:03:08.502Z,12.83
2018-07-20T10:05:37.299Z,12.80
2018-07-20T10:08:06.344Z,12.63
2018-07-20T10:10:35.061Z,11.83
2018-07-20T10:13:03.830Z,14.00
2018-07-20T10:15:32.609Z,14.10
2018-07-20T10:18:02.326Z,13.70
2018-07-20T10:20:31.002Z,12.57
2018-07-20T10:22:59.731Z,13.13
2018-07-20T10:25:28.620Z,13.67
2018-07-20T10:27:57.339Z,12.13
2018-07-20T10:30:26.070Z,17.00
2018-07-20T10:32:55.343Z,14.80
2018-07-20T10:35:24.068Z,12.60
2018-07-20T10:37:52.884Z,13.03
2018-07-20T10:40:25.532Z,14.43
2018-07-20T10:42:55.244Z,14.07
2018-07-20T10:45:24.093Z,12.87
2018-07-20T10:47:52.786Z,12.90
2018-07-20T10:50:21.572Z,14.13
2018-07-20T10:52:50.294Z,13.37
2018-07-20T10:55:19.554Z,12.70
2018-07-20T10:57:48.447Z,12.50
2018-07-20T11:00:17.199Z,12.70
2018-07-20T11:02:46.111Z,12.60
2018-07-20T11:05:15.128Z,14.17
2018-07-20T11:07:43.876Z,12.30
2018-07-20T11:10:12.641Z,14.60
2018-07-20T11:12:41.421Z,13.10
2018-07-20T11:15:10.151Z,11.97
2018-07-20T11:17:38.884Z,12.20
2018-07-20T11:20:07.613Z,12.40
2018-07-20T11:22:36.369Z,12.13
2018-07-20T11:25:05.203Z,11.60
2018-07-20T11:27:33.868Z,11.40
2018-07-20T11:30:02.602Z,13.43
2018-07-20T11:32:31.355Z,10.73
2018-07-20T11:35:00.062Z,11.67
2018-07-20T11:37:28.823Z,10.83
2018-07-20T11:39:57.524Z,10.87
2018-07-20T11:42:26.248Z,11.70
2018-07-20T11:44:54.961Z,11.07
2018-07-20T11:47:23.704Z,11.83
2018-07-20T11:49:52.429Z,13.07
2018-07-20T11:52:21.382Z,12.73
2018-07-20T11:54:50.310Z,12.57
2018-07-20T11:57:19.048Z,12.00
2018-07-20T11:59:47.894Z,11.90
2018-07-20T12:02:16.752Z,16.90
2018-07-20T12:04:45.552Z,12.93
2018-07-20T12:07:14.347Z,13.10
2018-07-20T12:09:43.016Z,10.23
2018-07-20T12:12:12.908Z,11.67
2018-07-20T12:14:41.618Z,11.60
2018-07-20T12:17:10.673Z,11.80
2018-07-20T12:19:39.356Z,11.87
2018-07-20T12:22:08.083Z,11.40
2018-07-20T12:24:36.786Z,11.47
2018-07-20T12:27:05.588Z,11.20
2018-07-20T12:29:37.493Z,11.20
2018-07-20T12:32:06.406Z,12.17
2018-07-20T12:34:35.327Z,11.33
2018-07-20T12:37:04.018Z,11.13
2018-07-20T12:39:32.768Z,12.70
2018-07-20T12:42:02.204Z,10.50
2018-07-20T12:44:30.862Z,11.03
2018-07-20T12:46:59.525Z,9.97
2018-07-20T12:49:28.280Z,10.93
2018-07-20T12:51:57.112Z,10.53
2018-07-20T12:54:25.802Z,10.13
2018-07-20T12:56:54.526Z,10.97
2018-07-20T12:59:23.187Z,10.40
2018-07-20T13:01:52.095Z,12.13
2018-07-20T13:04:20.942Z,10.57
2018-07-20T13:06:49.578Z,10.80
2018-07-20T13:09:18.263Z,11.03
2018-07-20T13:11:46.949Z,11.60
2018-07-20T13:14:15.686Z,10.63
2018-07-20T13:16:44.502Z,11.87
2018-07-20T13:19:15.754Z,11.70
2018-07-20T13:21:45.302Z,14.60
2018-07-20T13:24:14.321Z,10.57
2018-07-20T13:26:43.085Z,10.30
2018-07-20T13:29:11.862Z,11.43
2018-07-20T13:31:40.604Z,11.73
2018-07-20T13:34:09.323Z,10.93
2018-07-20T13:36:38.104Z,11.07
2018-07-20T13:39:09.529Z,15.20
2018-07-20T13:41:38.698Z,11.20
2018-07-20T13:44:07.496Z,11.67
2018-07-20T13:46:36.270Z,10.73
2018-07-20T13:49:05.359Z,11.90
2018-07-20T13:51:34.118Z,10.37
2018-07-20T13:54:02.833Z,10.73
2018-07-20T13:56:31.775Z,11.03
2018-07-20T13:59:00.556Z,11.60
2018-07-20T14:01:29.287Z,12.57
2018-07-20T14:03:58.032Z,12.10
2018-07-20T14:06:26.728Z,12.63
2018-07-20T14:08:55.494Z,11.67
2018-07-20T14:11:24.226Z,12.10
2018-07-20T14:13:53.293Z,11.50
2018-07-20T14:16:21.994Z,11.97
2018-07-20T14:18:50.752Z,14.47
2018-07-20T14:21:19.594Z,10.67
2018-07-20T14:23:48.363Z,14.83
2018-07-20T14:26:17.064Z,12.33
2018-07-20T14:28:46.186Z,13.00
2018-07-20T14:31:15.023Z,12.00
2018-07-20T14:33:43.614Z,12.60
2018-07-20T14:36:12.530Z,11.97
2018-07-20T14:38:41.310Z,12.30
2018-07-20T14:41:10.622Z,11.30
2018-07-20T14:43:39.263Z,11.43
2018-07-20T14:46:07.998Z,11.73
2018-07-20T14:48:36.670Z,10.97
2018-07-20T14:51:05.374Z,11.27
2018-07-20T14:53:34.371Z,10.67
2018-07-20T14:56:03.075Z,9.63
2018-07-20T14:58:31.814Z,10.55
2018-07-20T15:01:00.779Z,9.95
2018-07-20T15:03:29.511Z,12.75
2018-07-20T15:05:58.249Z,8.30
2018-07-20T15:08:27.055Z,9.15
2018-07-20T15:10:55.798Z,8.45
2018-07-20T15:13:24.869Z,8.53
2018-07-20T15:15:53.572Z,8.18
2018-07-20T15:18:22.343Z,8.58
2018-07-20T15:20:52.684Z,8.23
2018-07-20T15:23:21.542Z,8.95
2018-07-20T15:25:50.387Z,8.88
2018-07-20T15:28:19.251Z,8.20
2018-07-20T15:30:47.966Z,8.45
2018-07-20T15:33:16.684Z,9.48
2018-07-20T15:35:45.389Z,8.65
2018-07-20T15:38:14.355Z,8.05
2018-07-20T15:40:43.012Z,8.43
2018-07-20T15:43:11.764Z,7.45
2018-07-20T15:45:51.770Z,7.05
2018-07-20T15:48:09.861Z,7.95
2018-07-20T15:50:38.574Z,8.30
2018-07-20T15:53:37.358Z,8.58
2018-07-20T15:55:36.254Z,8.83
2018-07-20T15:58:05.476Z,8.73
2018-07-20T16:00:34.494Z,7.80
2018-07-20T16:03:03.524Z,7.78
2018-07-20T16:05:33.042Z,7.53
2018-07-20T16:08:02.028Z,7.37
2018-07-20T16:10:30.787Z,7.70
2018-07-20T16:12:59.516Z,7.60
2018-07-20T16:15:28.425Z,7.83
2018-07-20T16:17:58.734Z,7.20
2018-07-20T16:20:27.533Z,7.62
2018-07-20T16:22:56.263Z,7.50
2018-07-20T16:25:24.946Z,7.60
2018-07-20T16:27:53.908Z,8.30
2018-07-20T16:30:22.796Z,6.95
2018-07-20T16:32:51.520Z,6.97
2018-07-20T16:35:20.254Z,6.80
2018-07-20T16:37:49.029Z,6.67
2018-07-20T16:40:17.896Z,6.60
2018-07-20T16:42:46.604Z,6.53
2018-07-20T16:45:15.349Z,6.40
2018-07-20T16:47:44.146Z,5.92
2018-07-20T16:50:12.908Z,6.80
2018-07-20T16:52:41.696Z,7.58
2018-07-20T16:55:10.549Z,6.92
2018-07-20T16:57:39.280Z,6.65
2018-07-20T17:00:08.511Z,6.62
2018-07-20T17:02:39.570Z,8.38
2018-07-20T17:05:08.670Z,7.12
2018-07-20T17:07:37.330Z,7.17
2018-07-20T17:10:06.427Z,7.53
2018-07-20T17:12:36.801Z,7.90
2018-07-20T17:15:06.003Z,7.28
2018-07-20T17:17:35.837Z,7.83
2018-07-20T17:20:11.211Z,7.03
2018-07-20T17:22:39.917Z,7.80
2018-07-20T17:25:10.421Z,7.60
2018-07-20T17:27:45.033Z,8.33
2018-07-20T17:30:13.919Z,7.30
2018-07-20T17:32:42.690Z,17.05
2018-07-20T17:35:11.935Z,7.17
2018-07-20T17:37:40.679Z,7.30
2018-07-20T17:40:09.393Z,8.03
2018-07-20T17:42:38.130Z,8.15
2018-07-20T17:45:06.905Z,11.53
2018-07-20T17:47:35.693Z,7.17
2018-07-20T17:50:11.020Z,7.95
2018-07-20T17:52:40.668Z,7.22
2018-07-20T17:55:11.584Z,8.45
2018-07-20T17:57:40.447Z,8.80
2018-07-20T18:00:10.663Z,9.23
2018-07-20T18:02:39.443Z,9.73
2018-07-20T18:05:08.180Z,9.07
2018-07-20T18:07:36.978Z,10.03
2018-07-20T18:10:06.410Z,9.60
2018-07-20T18:12:35.300Z,10.10
2018-07-20T18:15:04.052Z,11.00
2018-07-20T18:17:32.724Z,9.87
2018-07-20T18:20:01.348Z,11.77
2018-07-20T18:22:30.001Z,11.70
2018-07-20T18:24:59.338Z,11.40
2018-07-20T18:27:28.001Z,14.57
2018-07-20T18:29:56.673Z,11.27
2018-07-20T18:32:25.490Z,11.87
2018-07-20T18:34:54.153Z,16.83
2018-07-20T18:37:22.940Z,12.13
2018-07-20T18:39:51.759Z,14.63
2018-07-20T18:42:20.542Z,12.73
2018-07-20T18:44:49.307Z,11.43
2018-07-20T18:47:18.058Z,11.83
2018-07-20T18:49:46.702Z,12.20
2018-07-20T18:52:15.383Z,14.13
2018-07-20T18:54:44.034Z,11.83
2018-07-20T18:57:12.734Z,12.80
2018-07-20T18:59:42.339Z,15.07
2018-07-20T19:02:12.222Z,14.67
2018-07-20T19:04:41.104Z,11.47
2018-07-20T19:07:11.161Z,13.80
2018-07-20T19:09:39.909Z,12.03
2018-07-20T19:12:09.541Z,12.37
2018-07-20T19:14:38.176Z,14.80
2018-07-20T19:17:07.059Z,12.77
2018-07-20T19:19:35.748Z,13.90
2018-07-20T19:22:04.415Z,13.90
2018-07-20T19:24:33.061Z,14.40
2018-07-20T19:27:01.875Z,14.67
2018-07-20T19:29:30.493Z,15.20
2018-07-20T19:31:59.182Z,13.67
2018-07-20T19:34:27.957Z,15.17
2018-07-20T19:36:56.596Z,14.67
2018-07-20T19:39:25.706Z,15.97
2018-07-20T19:41:54.548Z,17.13
2018-07-20T19:44:23.372Z,14.20
2018-07-20T19:46:52.025Z,15.23
2018-07-20T19:49:21.300Z,14.30
2018-07-20T19:52:01.481Z,16.70
2018-07-20T19:54:30.417Z,16.27
2018-07-20T19:56:59.222Z,14.80
2018-07-20T19:59:28.778Z,14.43
2018-07-20T20:01:57.489Z,13.83
2018-07-20T20:04:27.828Z,14.03
2018-07-20T20:06:56.600Z,15.80
2018-07-20T20:09:25.297Z,13.77
2018-07-20T20:11:54.005Z,19.30
2018-07-20T20:14:26.931Z,14.90
2018-07-20T20:16:55.833Z,14.37
2018-07-20T20:19:25.197Z,16.40
2018-07-20T20:21:56.789Z,14.87
2018-07-20T20:24:25.881Z,16.67
2018-07-20T20:26:54.779Z,15.77
2018-07-20T20:29:25.698Z,14.90
2018-07-20T20:31:55.458Z,15.43
2018-07-20T20:34:25.982Z,15.27
2018-07-20T20:36:55.379Z,15.47
2018-07-20T20:39:35.822Z,14.87
2018-07-20T20:42:16.324Z,14.70
2018-07-20T20:44:47.256Z,14.90
2018-07-20T20:47:16.575Z,15.83
2018-07-20T20:52:24.023Z,16.20
2018-07-20T20:54:53.851Z,16.27
2018-07-20T20:57:23.181Z,15.87
2018-07-20T20:59:57.018Z,16.30
2018-07-20T21:02:28.224Z,23.83
2018-07-20T21:04:57.980Z,16.83
2018-07-20T21:07:34.334Z,17.23
2018-07-20T21:10:13.730Z,16.30
2018-07-20T21:12:50.650Z,17.33
2018-07-20T21:15:25.114Z,15.80
2018-07-20T21:24:50.733Z,15.77
2018-07-20T21:33:01.912Z,16.07
2018-07-20T21:35:38.635Z,16.90
2018-07-20T21:45:18.231Z,16.50
2018-07-20T22:00:43.914Z,14.37
2018-07-20T22:03:13.645Z,15.17
2018-07-20T22:05:42.330Z,14.30
2018-07-20T22:08:11.019Z,14.53
2018-07-20T22:10:39.679Z,15.50
2018-07-20T22:13:10.182Z,14.43
2018-07-20T22:15:40.084Z,14.53
2018-07-20T22:18:08.846Z,15.20
2018-07-20T22:20:37.645Z,14.63
2018-07-20T22:23:07.080Z,15.00
2018-07-20T22:25:36.126Z,14.13
2018-07-20T22:28:05.451Z,18.43
2018-07-20T22:30:34.211Z,14.17
2018-07-20T22:33:03.151Z,18.47
2018-07-20T22:35:31.790Z,14.47
2018-07-20T22:38:01.130Z,15.13
2018-07-20T22:40:29.846Z,13.30
2018-07-20T22:42:59.169Z,14.40
2018-07-20T22:45:28.245Z,16.63
2018-07-20T22:47:56.924Z,15.57
2018-07-20T22:50:25.946Z,16.23
2018-07-20T22:52:55.047Z,16.97
2018-07-20T22:55:23.681Z,16.17
2018-07-20T22:57:52.921Z,15.80
2018-07-20T23:00:21.806Z,16.30
2018-07-20T23:02:51.996Z,20.03
2018-07-20T23:05:20.738Z,15.87
2018-07-20T23:07:49.489Z,15.30
2018-07-20T23:10:19.319Z,19.10
2018-07-20T23:12:48.189Z,18.47
2018-07-20T23:15:17.001Z,16.80
2018-07-20T23:17:45.687Z,17.30
2018-07-20T23:20:14.432Z,17.83
2018-07-20T23:22:43.097Z,17.27
2018-07-20T23:25:11.729Z,21.10
2018-07-20T23:27:40.485Z,16.10
2018-07-20T23:30:09.259Z,16.90
2018-07-20T23:32:38.417Z,16.53
2018-07-20T23:35:07.404Z,17.00
2018-07-20T23:37:36.409Z,15.07
2018-07-20T23:40:06.014Z,16.30
2018-07-20T23:42:34.756Z,15.70
2018-07-20T23:45:03.444Z,16.67
2018-07-20T23:47:32.156Z,18.33
2018-07-20T23:50:01.117Z,16.00
2018-07-20T23:52:29.815Z,16.57
2018-07-20T23:54:58.529Z,16.87
2018-07-20T23:57:27.236Z,17.23
2018-07-20T23:59:55.950Z,16.33
